sensor_id;sensor_type;location;lat;lon;timestamp;temperature;humidity
44223;DHT22;29895;48.804;9.386;2023-04-26T00:02:24;6.80;99.90
44223;DHT22;29895;48.804;9.386;2023-04-26T00:04:52;6.70;99.90
44223;DHT22;29895;48.804;9.386;2023-04-26T00:07:23;6.70;99.90
44223;DHT22;29895;48.804;9.386;2023-04-26T00:09:50;6.70;99.90
44223;DHT22;29895;48.804;9.386;2023-04-26T00:12:17;6.70;99.90
44223;DHT22;29895;48.804;9.386;2023-04-26T00:14:43;6.70;99.90
44223;DHT22;29895;48.804;9.386;2023-04-26T00:17:08;6.70;99.90
44223;DHT22;29895;48.804;9.386;2023-04-26T00:19:34;6.70;99.90
44223;DHT22;29895;48.804;9.386;2023-04-26T00:22:00;6.60;99.90
44223;DHT22;29895;48.804;9.386;2023-04-26T00:24:26;6.60;99.90
44223;DHT22;29895;48.804;9.386;2023-04-26T00:26:55;6.60;99.90
44223;DHT22;29895;48.804;9.386;2023-04-26T00:29:21;6.60;99.90
44223;DHT22;29895;48.804;9.386;2023-04-26T00:31:46;6.60;99.90
44223;DHT22;29895;48.804;9.386;2023-04-26T00:34:12;6.60;99.90
44223;DHT22;29895;48.804;9.386;2023-04-26T00:36:38;6.60;99.90
44223;DHT22;29895;48.804;9.386;2023-04-26T00:39:04;6.60;99.90
44223;DHT22;29895;48.804;9.386;2023-04-26T00:41:29;6.50;99.90
44223;DHT22;29895;48.804;9.386;2023-04-26T00:43:55;6.40;99.90
44223;DHT22;29895;48.804;9.386;2023-04-26T00:46:21;6.40;99.90
44223;DHT22;29895;48.804;9.386;2023-04-26T00:48:47;6.30;99.90
44223;DHT22;29895;48.804;9.386;2023-04-26T00:51:13;6.30;99.90
44223;DHT22;29895;48.804;9.386;2023-04-26T00:53:40;6.30;99.90
44223;DHT22;29895;48.804;9.386;2023-04-26T00:56:08;6.30;99.90
44223;DHT22;29895;48.804;9.386;2023-04-26T00:58:36;6.20;99.90
44223;DHT22;29895;48.804;9.386;2023-04-26T01:01:01;6.20;99.90
44223;DHT22;29895;48.804;9.386;2023-04-26T01:03:35;6.20;99.90
44223;DHT22;29895;48.804;9.386;2023-04-26T01:06:00;6.10;99.90
44223;DHT22;29895;48.804;9.386;2023-04-26T01:08:26;6.00;99.90
44223;DHT22;29895;48.804;9.386;2023-04-26T01:10:53;5.90;99.90
44223;DHT22;29895;48.804;9.386;2023-04-26T01:13:19;5.90;99.90
44223;DHT22;29895;48.804;9.386;2023-04-26T01:15:46;5.80;99.90
44223;DHT22;29895;48.804;9.386;2023-04-26T01:18:12;5.80;99.90
44223;DHT22;29895;48.804;9.386;2023-04-26T01:20:41;5.80;99.90
44223;DHT22;29895;48.804;9.386;2023-04-26T01:23:08;5.70;99.90
44223;DHT22;29895;48.804;9.386;2023-04-26T01:25:34;5.70;99.90
44223;DHT22;29895;48.804;9.386;2023-04-26T01:28:00;5.60;99.90
44223;DHT22;29895;48.804;9.386;2023-04-26T01:30:26;5.60;99.90
44223;DHT22;29895;48.804;9.386;2023-04-26T01:32:51;5.50;99.90
44223;DHT22;29895;48.804;9.386;2023-04-26T01:35:17;5.50;99.90
44223;DHT22;29895;48.804;9.386;2023-04-26T01:37:43;5.50;99.90
44223;DHT22;29895;48.804;9.386;2023-04-26T01:40:09;5.50;99.90
44223;DHT22;29895;48.804;9.386;2023-04-26T01:42:35;5.40;99.90
44223;DHT22;29895;48.804;9.386;2023-04-26T01:45:01;5.30;99.90
44223;DHT22;29895;48.804;9.386;2023-04-26T01:47:27;5.30;99.90
44223;DHT22;29895;48.804;9.386;2023-04-26T01:49:52;5.30;99.90
44223;DHT22;29895;48.804;9.386;2023-04-26T01:52:18;5.30;99.90
44223;DHT22;29895;48.804;9.386;2023-04-26T01:54:46;5.20;99.90
44223;DHT22;29895;48.804;9.386;2023-04-26T01:57:15;5.10;99.90
44223;DHT22;29895;48.804;9.386;2023-04-26T01:59:41;5.10;99.90
44223;DHT22;29895;48.804;9.386;2023-04-26T02:02:06;5.10;99.90
44223;DHT22;29895;48.804;9.386;2023-04-26T02:04:32;5.00;99.90
44223;DHT22;29895;48.804;9.386;2023-04-26T02:06:58;5.00;99.90
44223;DHT22;29895;48.804;9.386;2023-04-26T02:09:23;4.90;99.90
44223;DHT22;29895;48.804;9.386;2023-04-26T02:11:49;4.90;99.90
44223;DHT22;29895;48.804;9.386;2023-04-26T02:14:14;4.90;99.90
44223;DHT22;29895;48.804;9.386;2023-04-26T02:16:40;4.90;99.90
44223;DHT22;29895;48.804;9.386;2023-04-26T02:19:06;4.90;99.90
44223;DHT22;29895;48.804;9.386;2023-04-26T02:21:58;4.80;99.90
44223;DHT22;29895;48.804;9.386;2023-04-26T02:24:24;4.80;99.90
44223;DHT22;29895;48.804;9.386;2023-04-26T02:26:50;4.80;99.90
44223;DHT22;29895;48.804;9.386;2023-04-26T02:29:17;4.70;99.90
44223;DHT22;29895;48.804;9.386;2023-04-26T02:31:42;4.70;99.90
44223;DHT22;29895;48.804;9.386;2023-04-26T02:34:08;4.70;99.90
44223;DHT22;29895;48.804;9.386;2023-04-26T02:36:34;4.80;99.90
44223;DHT22;29895;48.804;9.386;2023-04-26T02:39:00;4.80;99.90
44223;DHT22;29895;48.804;9.386;2023-04-26T02:41:26;4.70;99.90
44223;DHT22;29895;48.804;9.386;2023-04-26T02:43:51;4.70;99.90
44223;DHT22;29895;48.804;9.386;2023-04-26T02:46:17;4.70;99.90
44223;DHT22;29895;48.804;9.386;2023-04-26T02:48:43;4.60;99.90
44223;DHT22;29895;48.804;9.386;2023-04-26T02:51:08;4.60;99.90
44223;DHT22;29895;48.804;9.386;2023-04-26T02:53:34;4.70;99.90
44223;DHT22;29895;48.804;9.386;2023-04-26T02:56:00;4.70;99.90
44223;DHT22;29895;48.804;9.386;2023-04-26T02:58:26;4.60;99.90
44223;DHT22;29895;48.804;9.386;2023-04-26T03:00:51;4.60;99.90
44223;DHT22;29895;48.804;9.386;2023-04-26T03:03:19;4.60;99.90
44223;DHT22;29895;48.804;9.386;2023-04-26T03:05:45;4.50;99.90
44223;DHT22;29895;48.804;9.386;2023-04-26T03:08:11;4.50;99.90
44223;DHT22;29895;48.804;9.386;2023-04-26T03:10:37;4.50;99.90
44223;DHT22;29895;48.804;9.386;2023-04-26T03:13:06;4.50;99.90
44223;DHT22;29895;48.804;9.386;2023-04-26T03:15:31;4.50;99.90
44223;DHT22;29895;48.804;9.386;2023-04-26T03:17:57;4.50;99.90
44223;DHT22;29895;48.804;9.386;2023-04-26T03:20:23;4.50;99.90
44223;DHT22;29895;48.804;9.386;2023-04-26T03:22:49;4.50;99.90
44223;DHT22;29895;48.804;9.386;2023-04-26T03:25:15;4.50;99.90
44223;DHT22;29895;48.804;9.386;2023-04-26T03:27:41;4.40;99.90
44223;DHT22;29895;48.804;9.386;2023-04-26T03:30:08;4.40;99.90
44223;DHT22;29895;48.804;9.386;2023-04-26T03:32:33;4.40;99.90
44223;DHT22;29895;48.804;9.386;2023-04-26T03:34:59;4.30;99.90
44223;DHT22;29895;48.804;9.386;2023-04-26T03:37:25;4.30;99.90
44223;DHT22;29895;48.804;9.386;2023-04-26T03:39:51;4.30;99.90
44223;DHT22;29895;48.804;9.386;2023-04-26T03:42:19;4.30;99.90
44223;DHT22;29895;48.804;9.386;2023-04-26T03:44:45;4.30;99.90
44223;DHT22;29895;48.804;9.386;2023-04-26T03:47:11;4.20;99.90
44223;DHT22;29895;48.804;9.386;2023-04-26T03:49:36;4.20;99.90
44223;DHT22;29895;48.804;9.386;2023-04-26T03:52:02;4.10;99.90
44223;DHT22;29895;48.804;9.386;2023-04-26T03:54:28;4.10;99.90
44223;DHT22;29895;48.804;9.386;2023-04-26T03:56:54;4.00;99.90
44223;DHT22;29895;48.804;9.386;2023-04-26T03:59:19;3.90;99.90
44223;DHT22;29895;48.804;9.386;2023-04-26T04:01:45;3.90;99.90
44223;DHT22;29895;48.804;9.386;2023-04-26T04:04:13;3.80;99.90
44223;DHT22;29895;48.804;9.386;2023-04-26T04:06:38;3.80;99.90
44223;DHT22;29895;48.804;9.386;2023-04-26T04:09:04;3.70;99.90
44223;DHT22;29895;48.804;9.386;2023-04-26T04:11:30;3.70;99.90
44223;DHT22;29895;48.804;9.386;2023-04-26T04:13:56;3.60;99.90
44223;DHT22;29895;48.804;9.386;2023-04-26T04:16:21;3.60;99.90
44223;DHT22;29895;48.804;9.386;2023-04-26T04:18:47;3.60;99.90
44223;DHT22;29895;48.804;9.386;2023-04-26T04:21:12;3.60;99.90
44223;DHT22;29895;48.804;9.386;2023-04-26T04:23:38;3.60;99.90
44223;DHT22;29895;48.804;9.386;2023-04-26T04:26:04;3.60;99.90
44223;DHT22;29895;48.804;9.386;2023-04-26T04:28:31;3.60;99.90
44223;DHT22;29895;48.804;9.386;2023-04-26T04:30:57;3.60;99.90
44223;DHT22;29895;48.804;9.386;2023-04-26T04:33:22;3.60;99.90
44223;DHT22;29895;48.804;9.386;2023-04-26T04:35:50;3.60;99.90
44223;DHT22;29895;48.804;9.386;2023-04-26T04:38:16;3.70;99.90
44223;DHT22;29895;48.804;9.386;2023-04-26T04:40:42;3.70;99.90
44223;DHT22;29895;48.804;9.386;2023-04-26T04:43:08;3.70;99.90
44223;DHT22;29895;48.804;9.386;2023-04-26T04:45:34;3.80;99.90
44223;DHT22;29895;48.804;9.386;2023-04-26T04:48:01;3.80;99.90
44223;DHT22;29895;48.804;9.386;2023-04-26T04:50:29;3.90;99.90
44223;DHT22;29895;48.804;9.386;2023-04-26T04:52:56;3.90;99.90
44223;DHT22;29895;48.804;9.386;2023-04-26T04:55:22;4.10;99.90
44223;DHT22;29895;48.804;9.386;2023-04-26T04:57:48;4.40;99.90
44223;DHT22;29895;48.804;9.386;2023-04-26T05:00:14;4.60;99.90
44223;DHT22;29895;48.804;9.386;2023-04-26T05:02:41;4.70;99.90
44223;DHT22;29895;48.804;9.386;2023-04-26T05:05:07;4.90;99.90
44223;DHT22;29895;48.804;9.386;2023-04-26T05:07:33;5.10;99.90
44223;DHT22;29895;48.804;9.386;2023-04-26T05:09:59;5.30;99.90
44223;DHT22;29895;48.804;9.386;2023-04-26T05:12:25;5.40;99.90
44223;DHT22;29895;48.804;9.386;2023-04-26T05:14:51;5.40;99.90
44223;DHT22;29895;48.804;9.386;2023-04-26T05:17:16;5.30;99.90
44223;DHT22;29895;48.804;9.386;2023-04-26T05:19:42;5.30;99.90
44223;DHT22;29895;48.804;9.386;2023-04-26T05:22:08;5.40;99.90
44223;DHT22;29895;48.804;9.386;2023-04-26T05:24:33;5.70;99.90
44223;DHT22;29895;48.804;9.386;2023-04-26T05:27:02;6.00;99.90
44223;DHT22;29895;48.804;9.386;2023-04-26T05:29:29;6.30;99.90
44223;DHT22;29895;48.804;9.386;2023-04-26T05:31:55;6.70;99.90
44223;DHT22;29895;48.804;9.386;2023-04-26T05:34:22;7.00;99.90
44223;DHT22;29895;48.804;9.386;2023-04-26T05:36:48;7.30;99.90
44223;DHT22;29895;48.804;9.386;2023-04-26T05:39:13;7.70;99.90
44223;DHT22;29895;48.804;9.386;2023-04-26T05:41:39;7.90;99.90
44223;DHT22;29895;48.804;9.386;2023-04-26T05:44:04;8.20;99.90
44223;DHT22;29895;48.804;9.386;2023-04-26T05:46:30;8.30;99.90
44223;DHT22;29895;48.804;9.386;2023-04-26T05:48:56;8.50;99.90
44223;DHT22;29895;48.804;9.386;2023-04-26T05:51:21;8.60;99.90
44223;DHT22;29895;48.804;9.386;2023-04-26T05:53:47;8.60;99.90
44223;DHT22;29895;48.804;9.386;2023-04-26T05:56:12;8.40;99.90
44223;DHT22;29895;48.804;9.386;2023-04-26T05:58:38;8.20;99.90
44223;DHT22;29895;48.804;9.386;2023-04-26T06:01:04;8.20;99.90
44223;DHT22;29895;48.804;9.386;2023-04-26T06:03:30;8.40;99.90
44223;DHT22;29895;48.804;9.386;2023-04-26T06:05:56;8.40;99.90
44223;DHT22;29895;48.804;9.386;2023-04-26T06:08:23;8.70;99.90
44223;DHT22;29895;48.804;9.386;2023-04-26T06:10:49;9.00;99.90
44223;DHT22;29895;48.804;9.386;2023-04-26T06:13:14;9.20;99.90
44223;DHT22;29895;48.804;9.386;2023-04-26T06:15:40;9.00;99.90
44223;DHT22;29895;48.804;9.386;2023-04-26T06:18:06;9.00;99.90
44223;DHT22;29895;48.804;9.386;2023-04-26T06:20:32;8.90;99.90
44223;DHT22;29895;48.804;9.386;2023-04-26T06:22:57;8.70;99.90
44223;DHT22;29895;48.804;9.386;2023-04-26T06:25:23;8.50;99.90
44223;DHT22;29895;48.804;9.386;2023-04-26T06:27:50;8.40;99.90
44223;DHT22;29895;48.804;9.386;2023-04-26T06:30:16;8.50;99.90
44223;DHT22;29895;48.804;9.386;2023-04-26T06:32:42;8.60;99.90
44223;DHT22;29895;48.804;9.386;2023-04-26T06:35:08;8.80;99.90
44223;DHT22;29895;48.804;9.386;2023-04-26T06:37:34;9.20;99.90
44223;DHT22;29895;48.804;9.386;2023-04-26T06:39:59;9.50;99.90
44223;DHT22;29895;48.804;9.386;2023-04-26T06:42:26;9.40;99.90
44223;DHT22;29895;48.804;9.386;2023-04-26T06:44:52;9.40;99.90
44223;DHT22;29895;48.804;9.386;2023-04-26T06:47:17;9.30;99.90
44223;DHT22;29895;48.804;9.386;2023-04-26T06:49:43;9.40;99.90
44223;DHT22;29895;48.804;9.386;2023-04-26T06:52:09;9.80;99.90
44223;DHT22;29895;48.804;9.386;2023-04-26T06:54:35;9.90;99.90
44223;DHT22;29895;48.804;9.386;2023-04-26T06:57:00;10.00;99.90
44223;DHT22;29895;48.804;9.386;2023-04-26T06:59:26;10.40;99.90
44223;DHT22;29895;48.804;9.386;2023-04-26T07:01:52;10.10;99.90
44223;DHT22;29895;48.804;9.386;2023-04-26T07:04:18;10.30;99.90
44223;DHT22;29895;48.804;9.386;2023-04-26T07:06:46;10.30;99.90
44223;DHT22;29895;48.804;9.386;2023-04-26T07:09:11;10.20;99.90
44223;DHT22;29895;48.804;9.386;2023-04-26T07:11:37;10.30;99.90
44223;DHT22;29895;48.804;9.386;2023-04-26T07:14:03;10.30;99.90
44223;DHT22;29895;48.804;9.386;2023-04-26T07:16:29;10.90;99.90
44223;DHT22;29895;48.804;9.386;2023-04-26T07:18:55;11.10;99.90
44223;DHT22;29895;48.804;9.386;2023-04-26T07:21:25;11.30;99.90
44223;DHT22;29895;48.804;9.386;2023-04-26T07:23:57;11.60;99.90
44223;DHT22;29895;48.804;9.386;2023-04-26T07:26:23;11.90;99.90
44223;DHT22;29895;48.804;9.386;2023-04-26T07:28:52;12.40;99.90
44223;DHT22;29895;48.804;9.386;2023-04-26T07:31:18;12.90;99.90
44223;DHT22;29895;48.804;9.386;2023-04-26T07:33:44;13.20;99.90
44223;DHT22;29895;48.804;9.386;2023-04-26T07:36:10;13.20;99.90
44223;DHT22;29895;48.804;9.386;2023-04-26T07:38:36;12.90;99.90
44223;DHT22;29895;48.804;9.386;2023-04-26T07:41:02;13.00;99.90
44223;DHT22;29895;48.804;9.386;2023-04-26T07:43:28;12.60;99.90
44223;DHT22;29895;48.804;9.386;2023-04-26T07:45:54;11.80;99.90
44223;DHT22;29895;48.804;9.386;2023-04-26T07:48:19;11.00;99.90
44223;DHT22;29895;48.804;9.386;2023-04-26T07:50:48;10.70;99.90
44223;DHT22;29895;48.804;9.386;2023-04-26T07:53:16;10.90;99.90
44223;DHT22;29895;48.804;9.386;2023-04-26T07:55:42;11.30;99.90
44223;DHT22;29895;48.804;9.386;2023-04-26T07:58:07;11.50;99.90
44223;DHT22;29895;48.804;9.386;2023-04-26T08:00:33;11.80;99.90
44223;DHT22;29895;48.804;9.386;2023-04-26T08:03:06;12.00;99.90
44223;DHT22;29895;48.804;9.386;2023-04-26T08:05:35;12.30;99.90
44223;DHT22;29895;48.804;9.386;2023-04-26T08:08:00;12.30;99.90
44223;DHT22;29895;48.804;9.386;2023-04-26T08:10:26;12.10;99.90
44223;DHT22;29895;48.804;9.386;2023-04-26T08:12:52;12.50;99.90
44223;DHT22;29895;48.804;9.386;2023-04-26T08:15:18;12.70;99.90
44223;DHT22;29895;48.804;9.386;2023-04-26T08:17:44;13.00;99.80
44223;DHT22;29895;48.804;9.386;2023-04-26T08:20:10;13.30;99.90
44223;DHT22;29895;48.804;9.386;2023-04-26T08:22:35;13.70;99.90
44223;DHT22;29895;48.804;9.386;2023-04-26T08:25:01;14.20;99.90
44223;DHT22;29895;48.804;9.386;2023-04-26T08:27:29;14.60;98.60
44223;DHT22;29895;48.804;9.386;2023-04-26T08:29:56;15.00;98.70
44223;DHT22;29895;48.804;9.386;2023-04-26T08:32:21;15.20;96.80
44223;DHT22;29895;48.804;9.386;2023-04-26T08:34:47;15.30;96.30
44223;DHT22;29895;48.804;9.386;2023-04-26T08:37:13;14.50;94.10
44223;DHT22;29895;48.804;9.386;2023-04-26T08:39:39;13.70;97.30
44223;DHT22;29895;48.804;9.386;2023-04-26T08:42:13;13.50;94.90
44223;DHT22;29895;48.804;9.386;2023-04-26T08:44:41;13.00;96.60
44223;DHT22;29895;48.804;9.386;2023-04-26T08:47:17;13.10;97.60
44223;DHT22;29895;48.804;9.386;2023-04-26T08:49:46;13.20;96.60
44223;DHT22;29895;48.804;9.386;2023-04-26T08:52:18;12.90;96.40
44223;DHT22;29895;48.804;9.386;2023-04-26T08:54:49;12.90;97.00
44223;DHT22;29895;48.804;9.386;2023-04-26T08:57:17;13.20;97.20
44223;DHT22;29895;48.804;9.386;2023-04-26T08:59:43;13.50;96.20
44223;DHT22;29895;48.804;9.386;2023-04-26T09:02:19;13.70;97.70
44223;DHT22;29895;48.804;9.386;2023-04-26T09:04:46;14.30;95.70
44223;DHT22;29895;48.804;9.386;2023-04-26T09:07:18;14.00;95.80
44223;DHT22;29895;48.804;9.386;2023-04-26T09:09:47;13.60;97.60
44223;DHT22;29895;48.804;9.386;2023-04-26T09:12:17;13.80;97.90
44223;DHT22;29895;48.804;9.386;2023-04-26T09:14:43;14.20;99.90
44223;DHT22;29895;48.804;9.386;2023-04-26T09:19:53;13.50;96.20
44223;DHT22;29895;48.804;9.386;2023-04-26T09:24:54;12.80;97.10
44223;DHT22;29895;48.804;9.386;2023-04-26T09:27:20;12.60;98.40
44223;DHT22;29895;48.804;9.386;2023-04-26T09:30:06;13.00;99.90
44223;DHT22;29895;48.804;9.386;2023-04-26T09:32:58;13.30;98.00
44223;DHT22;29895;48.804;9.386;2023-04-26T09:35:31;14.00;97.30
44223;DHT22;29895;48.804;9.386;2023-04-26T09:38:01;14.40;97.80
44223;DHT22;29895;48.804;9.386;2023-04-26T09:40:29;15.00;98.10
44223;DHT22;29895;48.804;9.386;2023-04-26T09:42:58;15.20;98.10
44223;DHT22;29895;48.804;9.386;2023-04-26T09:45:25;15.60;96.10
44223;DHT22;29895;48.804;9.386;2023-04-26T09:47:54;15.20;95.40
44223;DHT22;29895;48.804;9.386;2023-04-26T09:50:28;14.40;95.50
44223;DHT22;29895;48.804;9.386;2023-04-26T09:52:54;13.20;96.20
44223;DHT22;29895;48.804;9.386;2023-04-26T09:55:29;13.00;96.50
44223;DHT22;29895;48.804;9.386;2023-04-26T09:57:56;13.60;97.00
44223;DHT22;29895;48.804;9.386;2023-04-26T10:00:25;13.30;96.20
44223;DHT22;29895;48.804;9.386;2023-04-26T10:02:53;13.30;96.10
44223;DHT22;29895;48.804;9.386;2023-04-26T10:05:19;13.30;97.20
44223;DHT22;29895;48.804;9.386;2023-04-26T10:07:46;13.50;96.50
44223;DHT22;29895;48.804;9.386;2023-04-26T10:10:21;13.40;95.90
44223;DHT22;29895;48.804;9.386;2023-04-26T10:12:47;13.30;95.40
44223;DHT22;29895;48.804;9.386;2023-04-26T10:15:13;13.30;96.00
44223;DHT22;29895;48.804;9.386;2023-04-26T10:17:39;13.50;95.80
44223;DHT22;29895;48.804;9.386;2023-04-26T10:20:09;14.00;98.00
44223;DHT22;29895;48.804;9.386;2023-04-26T10:22:44;14.70;98.40
44223;DHT22;29895;48.804;9.386;2023-04-26T10:25:10;15.40;97.30
44223;DHT22;29895;48.804;9.386;2023-04-26T10:30:09;14.60;94.00
44223;DHT22;29895;48.804;9.386;2023-04-26T10:35:31;14.30;93.40
44223;DHT22;29895;48.804;9.386;2023-04-26T10:45:45;14.90;93.20
44223;DHT22;29895;48.804;9.386;2023-04-26T10:48:19;14.80;94.80
44223;DHT22;29895;48.804;9.386;2023-04-26T10:51:09;14.80;95.10
44223;DHT22;29895;48.804;9.386;2023-04-26T10:58:48;16.10;93.60
44223;DHT22;29895;48.804;9.386;2023-04-26T11:04:11;15.40;92.30
44223;DHT22;29895;48.804;9.386;2023-04-26T11:09:39;15.50;93.20
44223;DHT22;29895;48.804;9.386;2023-04-26T11:12:13;14.90;93.10
44223;DHT22;29895;48.804;9.386;2023-04-26T11:14:43;14.90;93.50
44223;DHT22;29895;48.804;9.386;2023-04-26T11:17:11;14.40;93.30
44223;DHT22;29895;48.804;9.386;2023-04-26T11:19:37;14.50;92.80
44223;DHT22;29895;48.804;9.386;2023-04-26T11:22:06;14.50;92.60
44223;DHT22;29895;48.804;9.386;2023-04-26T11:24:33;14.50;93.40
44223;DHT22;29895;48.804;9.386;2023-04-26T11:27:06;15.00;95.90
44223;DHT22;29895;48.804;9.386;2023-04-26T11:29:32;15.50;92.90
44223;DHT22;29895;48.804;9.386;2023-04-26T11:31:58;14.80;91.50
44223;DHT22;29895;48.804;9.386;2023-04-26T11:34:36;14.20;92.40
44223;DHT22;29895;48.804;9.386;2023-04-26T11:37:04;14.00;92.50
44223;DHT22;29895;48.804;9.386;2023-04-26T11:39:34;13.80;93.20
44223;DHT22;29895;48.804;9.386;2023-04-26T11:42:07;13.50;93.10
44223;DHT22;29895;48.804;9.386;2023-04-26T11:44:33;13.60;93.50
44223;DHT22;29895;48.804;9.386;2023-04-26T11:47:02;14.10;93.80
44223;DHT22;29895;48.804;9.386;2023-04-26T11:49:29;14.70;94.50
44223;DHT22;29895;48.804;9.386;2023-04-26T11:51:55;15.20;92.40
44223;DHT22;29895;48.804;9.386;2023-04-26T11:54:31;15.60;91.70
44223;DHT22;29895;48.804;9.386;2023-04-26T11:56:58;16.00;91.80
44223;DHT22;29895;48.804;9.386;2023-04-26T11:59:28;16.00;91.70
44223;DHT22;29895;48.804;9.386;2023-04-26T12:01:55;15.40;90.60
44223;DHT22;29895;48.804;9.386;2023-04-26T12:04:28;15.40;93.90
44223;DHT22;29895;48.804;9.386;2023-04-26T12:06:54;15.40;90.60
44223;DHT22;29895;48.804;9.386;2023-04-26T12:09:26;14.90;91.20
44223;DHT22;29895;48.804;9.386;2023-04-26T12:11:57;15.00;91.40
44223;DHT22;29895;48.804;9.386;2023-04-26T12:14:37;15.40;91.40
44223;DHT22;29895;48.804;9.386;2023-04-26T12:17:04;15.70;92.10
44223;DHT22;29895;48.804;9.386;2023-04-26T12:19:38;16.20;93.20
44223;DHT22;29895;48.804;9.386;2023-04-26T12:22:05;16.40;92.60
44223;DHT22;29895;48.804;9.386;2023-04-26T12:24:34;16.20;89.80
44223;DHT22;29895;48.804;9.386;2023-04-26T12:27:04;15.40;91.10
44223;DHT22;29895;48.804;9.386;2023-04-26T12:29:36;15.00;91.00
44223;DHT22;29895;48.804;9.386;2023-04-26T12:32:01;15.00;91.60
44223;DHT22;29895;48.804;9.386;2023-04-26T12:34:28;14.90;92.10
44223;DHT22;29895;48.804;9.386;2023-04-26T12:36:54;15.20;92.20
44223;DHT22;29895;48.804;9.386;2023-04-26T12:39:20;15.30;92.70
44223;DHT22;29895;48.804;9.386;2023-04-26T12:41:45;15.40;91.80
44223;DHT22;29895;48.804;9.386;2023-04-26T12:44:11;15.20;91.40
44223;DHT22;29895;48.804;9.386;2023-04-26T12:46:37;15.10;91.90
44223;DHT22;29895;48.804;9.386;2023-04-26T12:49:03;15.50;90.90
44223;DHT22;29895;48.804;9.386;2023-04-26T12:51:29;16.10;92.00
44223;DHT22;29895;48.804;9.386;2023-04-26T12:53:56;16.60;91.50
44223;DHT22;29895;48.804;9.386;2023-04-26T12:56:23;16.50;89.30
44223;DHT22;29895;48.804;9.386;2023-04-26T12:58:48;16.30;90.10
44223;DHT22;29895;48.804;9.386;2023-04-26T13:01:15;16.10;88.20
44223;DHT22;29895;48.804;9.386;2023-04-26T13:03:40;15.80;88.90
44223;DHT22;29895;48.804;9.386;2023-04-26T13:06:07;15.20;89.80
44223;DHT22;29895;48.804;9.386;2023-04-26T13:08:33;15.00;91.40
44223;DHT22;29895;48.804;9.386;2023-04-26T13:10:58;15.00;92.10
44223;DHT22;29895;48.804;9.386;2023-04-26T13:13:24;15.50;92.30
44223;DHT22;29895;48.804;9.386;2023-04-26T13:15:50;16.10;91.00
44223;DHT22;29895;48.804;9.386;2023-04-26T13:18:19;16.80;90.60
44223;DHT22;29895;48.804;9.386;2023-04-26T13:20:45;16.00;89.80
44223;DHT22;29895;48.804;9.386;2023-04-26T13:23:12;15.60;92.20
44223;DHT22;29895;48.804;9.386;2023-04-26T13:25:40;15.70;92.50
44223;DHT22;29895;48.804;9.386;2023-04-26T13:28:06;15.90;91.00
44223;DHT22;29895;48.804;9.386;2023-04-26T13:30:31;15.90;93.40
44223;DHT22;29895;48.804;9.386;2023-04-26T13:32:57;16.20;91.00
44223;DHT22;29895;48.804;9.386;2023-04-26T13:35:23;15.90;91.00
44223;DHT22;29895;48.804;9.386;2023-04-26T13:37:48;16.10;91.70
44223;DHT22;29895;48.804;9.386;2023-04-26T13:40:23;16.20;89.70
44223;DHT22;29895;48.804;9.386;2023-04-26T13:42:49;15.90;90.00
44223;DHT22;29895;48.804;9.386;2023-04-26T13:45:14;15.60;90.40
44223;DHT22;29895;48.804;9.386;2023-04-26T13:47:40;15.70;91.00
44223;DHT22;29895;48.804;9.386;2023-04-26T13:50:06;15.70;89.90
44223;DHT22;29895;48.804;9.386;2023-04-26T13:52:34;15.50;90.20
44223;DHT22;29895;48.804;9.386;2023-04-26T13:55:00;15.30;90.90
44223;DHT22;29895;48.804;9.386;2023-04-26T13:57:27;15.30;90.20
44223;DHT22;29895;48.804;9.386;2023-04-26T13:59:55;15.30;89.20
44223;DHT22;29895;48.804;9.386;2023-04-26T14:02:24;15.40;89.60
44223;DHT22;29895;48.804;9.386;2023-04-26T14:04:49;15.30;90.30
44223;DHT22;29895;48.804;9.386;2023-04-26T14:07:15;15.40;89.70
44223;DHT22;29895;48.804;9.386;2023-04-26T14:09:41;15.50;89.00
44223;DHT22;29895;48.804;9.386;2023-04-26T14:12:07;15.20;89.20
44223;DHT22;29895;48.804;9.386;2023-04-26T14:14:32;15.00;89.50
44223;DHT22;29895;48.804;9.386;2023-04-26T14:17:01;14.70;90.30
44223;DHT22;29895;48.804;9.386;2023-04-26T14:19:26;14.60;91.00
44223;DHT22;29895;48.804;9.386;2023-04-26T14:21:52;14.60;91.00
44223;DHT22;29895;48.804;9.386;2023-04-26T14:24:18;14.60;90.40
44223;DHT22;29895;48.804;9.386;2023-04-26T14:26:43;14.70;91.40
44223;DHT22;29895;48.804;9.386;2023-04-26T14:29:09;14.90;91.60
44223;DHT22;29895;48.804;9.386;2023-04-26T14:31:35;15.10;90.30
44223;DHT22;29895;48.804;9.386;2023-04-26T14:34:00;15.00;90.40
44223;DHT22;29895;48.804;9.386;2023-04-26T14:36:26;14.70;90.40
44223;DHT22;29895;48.804;9.386;2023-04-26T14:38:53;14.10;90.70
44223;DHT22;29895;48.804;9.386;2023-04-26T14:41:18;13.70;91.60
44223;DHT22;29895;48.804;9.386;2023-04-26T14:43:47;13.70;92.10
44223;DHT22;29895;48.804;9.386;2023-04-26T14:46:15;13.50;91.60
44223;DHT22;29895;48.804;9.386;2023-04-26T14:48:40;13.40;91.80
44223;DHT22;29895;48.804;9.386;2023-04-26T14:51:08;13.30;92.50
44223;DHT22;29895;48.804;9.386;2023-04-26T14:53:33;13.30;92.00
44223;DHT22;29895;48.804;9.386;2023-04-26T14:56:00;13.30;91.90
44223;DHT22;29895;48.804;9.386;2023-04-26T14:58:26;13.20;93.40
44223;DHT22;29895;48.804;9.386;2023-04-26T15:00:52;13.30;92.50
44223;DHT22;29895;48.804;9.386;2023-04-26T15:03:18;13.40;92.40
44223;DHT22;29895;48.804;9.386;2023-04-26T15:05:44;13.50;92.10
44223;DHT22;29895;48.804;9.386;2023-04-26T15:08:10;13.70;91.80
44223;DHT22;29895;48.804;9.386;2023-04-26T15:10:35;13.90;91.90
44223;DHT22;29895;48.804;9.386;2023-04-26T15:13:01;14.20;92.30
44223;DHT22;29895;48.804;9.386;2023-04-26T15:15:30;14.20;91.80
44223;DHT22;29895;48.804;9.386;2023-04-26T15:17:56;14.40;92.20
44223;DHT22;29895;48.804;9.386;2023-04-26T15:20:21;14.70;92.10
44223;DHT22;29895;48.804;9.386;2023-04-26T15:22:48;15.10;90.60
44223;DHT22;29895;48.804;9.386;2023-04-26T15:25:14;14.80;90.40
44223;DHT22;29895;48.804;9.386;2023-04-26T15:27:40;14.50;90.60
44223;DHT22;29895;48.804;9.386;2023-04-26T15:30:06;14.40;90.70
44223;DHT22;29895;48.804;9.386;2023-04-26T15:32:33;14.60;92.20
44223;DHT22;29895;48.804;9.386;2023-04-26T15:34:59;14.60;91.90
44223;DHT22;29895;48.804;9.386;2023-04-26T15:37:25;14.70;91.70
44223;DHT22;29895;48.804;9.386;2023-04-26T15:39:51;14.70;91.60
44223;DHT22;29895;48.804;9.386;2023-04-26T15:42:19;14.30;91.40
44223;DHT22;29895;48.804;9.386;2023-04-26T15:44:45;14.00;91.40
44223;DHT22;29895;48.804;9.386;2023-04-26T15:47:11;13.90;91.50
44223;DHT22;29895;48.804;9.386;2023-04-26T15:49:38;13.90;91.60
44223;DHT22;29895;48.804;9.386;2023-04-26T15:52:04;13.40;92.20
44223;DHT22;29895;48.804;9.386;2023-04-26T15:54:30;13.20;92.70
44223;DHT22;29895;48.804;9.386;2023-04-26T15:56:56;13.20;92.30
44223;DHT22;29895;48.804;9.386;2023-04-26T15:59:22;13.20;92.70
44223;DHT22;29895;48.804;9.386;2023-04-26T16:01:48;13.20;93.40
44223;DHT22;29895;48.804;9.386;2023-04-26T16:04:13;13.20;93.20
44223;DHT22;29895;48.804;9.386;2023-04-26T16:06:39;13.00;92.90